Latest Weather Observations for Darwin Airport

IDD60901

Issued at 6:21 pm CST Saturday 3 June 2023 (issued every 10 minutes, with the page automatically refreshed every 10 minutes)

About weather observations | Map of Darwin area stations | Latest observations for Darwin area | Other Formats
Station Details ID: 014015 Name: DARWIN AIRPORT Lat: -12.42 Lon: 130.89 Height: 30.4 m
Data from the previous 72 hours. | See also: Recent months at Darwin Airport
Date/Time
CST
Temp
°C
App
Temp
°C
Dew
Point
°C
Rel
Hum
%
Delta-T
°C
Wind Press
QNH
hPa
Press
MSL
hPa
Rain since
9am
mm
Dir  Spd
km/h
Gust
km/h
Spd
kts
Gust
kts
03/06:00pm 27.6 28.0 18.9 59 5.6 NNE 15 19 8 10 1012.1 1011.9 0.0
03/05:30pm 28.4 27.9 17.9 53 6.7 N 17 24 9 13 1011.9 1011.7 0.0
03/05:00pm 29.3 29.1 18.4 51 7.0 NNE 17 20 9 11 1011.9 1011.7 0.0
03/04:30pm 29.9 28.8 17.4 47 7.9 NNE 19 26 10 14 1012.0 1011.8 0.0
03/04:00pm 30.4 29.3 17.8 46 8.1 NE 20 28 11 15 1012.0 1011.8 0.0
03/03:30pm 30.4 30.1 18.2 48 7.8 NE 17 28 9 15 1011.8 1011.6 0.0
03/03:00pm 29.8 29.5 18.3 50 7.4 NE 17 28 9 15 1012.0 1011.8 0.0
03/02:30pm 30.1 29.5 18.5 49 7.5 NE 19 30 10 16 1012.2 1012.0 0.0
03/02:00pm 30.2 29.5 18.3 49 7.7 ENE 19 28 10 15 1012.7 1012.5 0.0
03/01:30pm 29.7 29.0 18.2 50 7.4 ENE 19 24 10 13 1013.2 1013.0 0.0
03/01:00pm 29.7 29.5 18.5 51 7.2 ENE 17 28 9 15 1013.6 1013.4 0.0
03/12:30pm 30.0 29.9 20.0 55 6.6 ENE 20 28 11 15 1014.0 1013.8 0.0
03/12:00pm 28.4 28.1 19.1 57 6.0 E 19 26 10 14 1014.6 1014.4 0.0
03/11:30am 28.9 29.7 20.6 61 5.5 NE 17 24 9 13 1015.1 1014.9 0.0
03/11:00am 28.1 28.5 20.6 63 5.0 E 19 28 10 15 1015.6 1015.4 0.0
03/10:30am 27.3 28.2 20.9 68 4.2 E 17 24 9 13 1015.9 1015.7 0.0
03/10:00am 26.5 27.3 21.3 73 3.5 ENE 19 26 10 14 1015.9 1015.7 0.0
03/09:30am 26.3 27.4 21.3 74 3.3 ENE 17 26 9 14 1015.8 1015.6 0.0
03/09:00am 25.5 27.1 21.4 78 2.7 E 15 20 8 11 1015.8 1015.6 0.0
03/08:30am 24.4 26.8 21.5 84 1.9 E 11 13 6 7 1015.7 1015.5 0.0
03/08:00am 23.3 25.8 21.0 87 1.5 ESE 9 11 5 6 1015.4 1015.2 0.0
03/07:30am 21.9 24.1 20.5 92 0.9 E 9 11 5 6 1015.1 1014.9 0.0
03/07:00am 21.2 23.6 20.0 93 0.8 E 7 9 4 5 1014.9 1014.7 0.0
03/06:30am 21.5 23.9 20.1 92 0.9 E 7 9 4 5 1014.6 1014.4 0.0
03/06:00am 21.7 23.9 20.3 92 0.9 ENE 9 11 5 6 1014.3 1014.1 0.0
03/05:30am 21.7 24.4 20.3 92 0.9 E 6 6 3 3 1014.1 1013.9 0.0
03/05:00am 21.8 24.7 20.6 93 0.8 E 6 6 3 3 1014.0 1013.8 0.0
03/04:30am 22.0 25.2 20.6 92 0.9 E 4 4 2 2 1014.0 1013.8 0.0
03/04:00am 22.2 25.5 20.8 92 0.9 ENE 4 6 2 3 1013.8 1013.6 0.0
03/03:30am 22.2 25.2 20.8 92 0.9 ENE 6 7 3 4 1013.6 1013.4 0.0
03/03:00am 22.3 25.3 20.9 92 0.9 ENE 6 9 3 5 1013.8 1013.6 0.0
03/02:30am 22.4 24.8 20.9 91 1.0 NE 9 11 5 6 1014.1 1013.9 0.0
03/02:00am 22.5 25.3 20.8 90 1.1 ENE 7 9 4 5 1014.2 1014.0 0.0
03/01:30am 22.4 25.1 20.7 90 1.1 NE 7 9 4 5 1014.5 1014.3 0.0
03/01:00am 22.2 25.1 20.7 91 1.0 E 6 6 3 3 1014.6 1014.4 0.0
03/12:30am 22.6 25.7 21.1 91 1.0 E 6 7 3 4 1014.7 1014.5 0.0
03/12:00am 22.4 25.2 20.5 89 1.2 SE 6 6 3 3 1014.8 1014.6 0.0
 
Date/Time
CST
Temp
°C
App
Temp
°C
Dew
Point
°C
Rel
Hum
%
Delta-T
°C
Wind Press
QNH
hPa
Press
MSL
hPa
Rain since
9am
mm
Dir  Spd
km/h
Gust
km/h
Spd
kts
Gust
kts
02/11:30pm 23.1 26.7 21.2 89 1.2 S 4 6 2 3 1014.7 1014.5 0.0
02/11:00pm 23.5 26.6 21.0 86 1.6 SSE 6 6 3 3 1014.9 1014.7 0.0
02/10:30pm 24.0 28.4 21.3 85 1.8 CALM 0 4 0 2 1014.8 1014.6 0.0
02/10:00pm 23.4 27.8 21.3 88 1.4 CALM 0 2 0 1 1014.7 1014.5 0.0
02/09:30pm 24.2 27.2 20.9 82 2.2 NNE 6 6 3 3 1014.5 1014.3 0.0
02/09:00pm 24.6 27.6 21.3 82 2.2 NNE 7 11 4 6 1014.3 1014.1 0.0
02/08:30pm 24.9 27.5 21.2 80 2.4 NNE 9 13 5 7 1014.1 1013.9 0.0
02/08:00pm 25.1 27.2 21.0 78 2.7 NNE 11 15 6 8 1013.7 1013.5 0.0
02/07:30pm 25.4 26.9 20.6 75 3.1 NNE 13 17 7 9 1013.4 1013.2 0.0
02/07:00pm 25.6 27.6 20.8 75 3.2 NNE 11 19 6 10 1013.2 1013.0 0.0
02/06:30pm 26.2 27.8 20.8 72 3.6 NNE 13 19 7 10 1013.1 1012.9 0.0
02/06:00pm 27.0 28.6 20.8 69 4.1 N 13 17 7 9 1012.7 1012.5 0.0
02/05:30pm 27.7 28.8 20.5 65 4.7 N 15 20 8 11 1012.3 1012.1 0.0
02/05:00pm 28.1 28.8 20.4 63 5.1 N 17 20 9 11 1012.0 1011.8 0.0
02/04:30pm 28.6 29.0 19.8 59 5.8 N 17 20 9 11 1011.9 1011.7 0.0
02/04:00pm 29.2 29.7 20.1 58 6.0 N 17 22 9 12 1011.8 1011.6 0.0
02/03:30pm 29.3 29.4 19.9 57 6.2 NNE 19 22 10 12 1011.8 1011.6 0.0
02/03:00pm 30.3 29.4 19.0 50 7.3 N 22 32 12 17 1011.7 1011.5 0.0
02/02:30pm 30.7 29.9 18.1 47 8.1 NNE 19 26 10 14 1012.0 1011.8 0.0
02/02:00pm 30.6 30.7 18.3 47 7.9 NE 15 22 8 12 1012.3 1012.1 0.0
02/01:30pm 30.7 31.1 18.1 47 8.1 E 13 24 7 13 1012.7 1012.5 0.0
02/01:00pm 31.1 31.0 18.8 48 8.0 NE 17 24 9 13 1013.1 1012.9 0.0
02/12:30pm 30.0 29.6 18.1 49 7.6 NE 17 28 9 15 1013.7 1013.5 0.0
02/12:00pm 29.7 29.0 18.2 50 7.4 NE 19 28 10 15 1014.3 1014.1 0.0
02/11:30am 28.5 28.8 19.7 59 5.7 NE 17 26 9 14 1014.6 1014.4 0.0
02/11:00am 28.5 28.7 20.2 60 5.5 E 19 26 10 14 1014.9 1014.7 0.0
02/10:30am 28.2 27.8 19.4 59 5.7 ENE 20 30 11 16 1015.1 1014.9 0.0
02/10:00am 26.9 26.7 20.5 68 4.2 ENE 22 30 12 16 1015.3 1015.1 0.0
02/09:30am 26.7 27.6 21.5 73 3.5 NE 19 26 10 14 1015.5 1015.3 0.0
02/09:00am 26.2 29.0 21.6 76 3.1 NE 9 17 5 9 1015.4 1015.2 0.0
02/08:30am 25.6 28.7 21.1 76 3.0 ESE 6 6 3 3 1015.2 1015.0 0.0
02/08:00am 23.5 26.7 20.4 83 2.0 ESE 4 7 2 4 1015.0 1014.8 0.0
02/07:30am 22.8 25.6 20.5 87 1.5 S 6 6 3 3 1014.7 1014.5 0.0
02/07:00am 22.3 25.3 20.0 87 1.5 SSE 4 6 2 3 1014.5 1014.3 0.0
02/06:30am 22.2 24.8 20.1 88 1.4 SE 6 7 3 4 1014.2 1014.0 0.0
02/06:00am 21.6 24.2 20.1 91 1.0 E 6 7 3 4 1014.0 1013.8 0.0
02/05:30am 21.4 24.4 20.0 92 0.9 ESE 4 4 2 2 1013.6 1013.4 0.0
02/05:00am 21.1 23.9 19.6 91 1.0 ESE 4 6 2 3 1013.3 1013.1 0.0
02/04:30am 21.5 23.9 20.0 91 1.0 SSE 7 9 4 5 1013.0 1012.8 0.0
02/04:00am 21.3 23.9 20.1 93 0.8 S 6 7 3 4 1012.9 1012.7 0.0
02/03:30am 21.6 24.5 20.6 94 0.6 S 6 9 3 5 1013.0 1012.8 0.0
02/03:00am 21.5 25.3 20.1 92 0.9 CALM 0 0 0 0 1013.1 1012.9 0.0
02/02:30am 21.8 25.3 20.3 91 1.0 SE 2 2 1 1 1013.5 1013.3 0.0
02/02:00am 22.3 25.0 20.6 90 1.1 SSE 7 9 4 5 1013.5 1013.3 0.0
02/01:30am 22.8 25.0 21.1 90 1.1 SSE 11 13 6 7 1013.5 1013.3 0.0
02/01:00am 22.9 26.2 21.4 91 1.0 S 6 9 3 5 1013.5 1013.3 0.0
02/12:30am 22.9 25.5 21.2 90 1.1 S 9 11 5 6 1013.6 1013.4 0.0
02/12:00am 23.2 26.0 20.9 87 1.5 S 7 9 4 5 1013.7 1013.5 0.0
 
Date/Time
CST
Temp
°C
App
Temp
°C
Dew
Point
°C
Rel
Hum
%
Delta-T
°C
Wind Press
QNH
hPa
Press
MSL
hPa
Rain since
9am
mm
Dir  Spd
km/h
Gust
km/h
Spd
kts
Gust
kts
01/11:30pm 22.4 26.4 20.5 89 1.2 CALM 0 2 0 1 1014.0 1013.8 0.0
01/11:00pm 22.5 25.7 20.4 88 1.4 NE 4 4 2 2 1014.0 1013.8 0.0
01/10:30pm 23.3 27.3 20.6 85 1.8 CALM 0 0 0 0 1013.9 1013.7 0.0
01/10:00pm 23.6 27.6 20.5 83 2.0 CALM 0 0 0 0 1013.9 1013.7 0.0
01/09:30pm 24.3 27.3 20.8 81 2.3 NNE 6 7 3 4 1013.9 1013.7 0.0
01/09:00pm 24.5 27.4 21.0 81 2.3 NNE 7 9 4 5 1013.9 1013.7 0.0
01/08:30pm 24.9 27.3 20.8 78 2.7 N 9 13 5 7 1013.6 1013.4 0.0
01/08:00pm 25.1 27.6 21.0 78 2.7 N 9 13 5 7 1013.3 1013.1 0.0
01/07:30pm 25.3 27.1 21.2 78 2.7 N 13 17 7 9 1013.0 1012.8 0.0
01/07:00pm 25.5 27.1 21.4 78 2.7 N 15 20 8 11 1012.8 1012.6 0.0
01/06:30pm 25.9 27.3 21.1 75 3.2 N 15 19 8 10 1012.6 1012.4 0.0
01/06:00pm 26.8 27.7 20.9 70 3.9 N 17 20 9 11 1012.3 1012.1 0.0
01/05:30pm 27.5 28.1 21.1 68 4.3 N 19 22 10 12 1011.9 1011.7 0.0
01/05:00pm 28.5 29.5 21.0 64 5.0 N 17 20 9 11 1011.7 1011.5 0.0
01/04:30pm 28.9 29.1 20.1 59 5.8 NNW 19 32 10 17 1011.5 1011.3 0.0
01/04:00pm 29.5 29.9 19.8 56 6.4 NNW 17 19 9 10 1011.2 1011.0 0.0
01/03:30pm 29.8 30.8 19.5 54 6.7 NNW 13 15 7 8 1011.1 1010.9 0.0
01/03:00pm 30.4 30.9 20.0 53 6.9 NW 17 20 9 11 1011.3 1011.1 0.0
01/02:30pm 30.4 30.8 18.2 48 7.8 W 13 19 7 10 1011.6 1011.4 0.0
01/02:00pm 30.6 32.3 18.0 47 8.1 N 6 17 3 9 1011.8 1011.6 0.0
01/01:30pm 30.4 31.3 18.5 49 7.7 ENE 11 19 6 10 1012.1 1011.9 0.0
01/01:00pm 30.6 31.1 18.3 47 7.9 E 13 20 7 11 1012.7 1012.5 0.0
01/12:30pm 29.2 29.4 17.7 50 7.3 ENE 13 20 7 11 1013.4 1013.2 0.0
01/12:00pm 28.9 28.2 17.4 49 7.3 ENE 17 26 9 14 1013.8 1013.6 0.0
01/11:30am 28.5 27.6 17.7 52 6.8 ENE 19 28 10 15 1014.1 1013.9 0.0
01/11:00am 27.9 26.5 17.1 51 6.8 E 20 28 11 15 1014.5 1014.3 0.0
01/10:30am 27.6 26.5 17.2 53 6.5 E 19 24 10 13 1014.8 1014.6 0.0
01/10:00am 26.7 25.8 16.9 55 6.1 ESE 17 24 9 13 1015.0 1014.8 0.0
01/09:30am 25.2 24.9 15.5 55 5.9 ESE 11 17 6 9 1014.9 1014.7 0.0
01/09:00am 22.8 21.5 13.6 56 5.3 SE 13 17 7 9 1015.0 1014.8 0.0
01/08:30am 21.3 20.1 12.7 58 4.9 SE 11 15 6 8 1014.7 1014.5 0.0
01/08:00am 20.7 18.5 10.8 53 5.4 SE 13 15 7 8 1014.5 1014.3 0.0
01/07:30am 19.5 18.5 11.0 58 4.6 ESE 7 11 4 6 1014.2 1014.0 0.0
01/07:00am 18.2 17.6 12.4 69 3.2 SE 7 9 4 5 1013.9 1013.7 0.0
01/06:30am 18.1 17.3 12.8 71 3.0 SE 9 13 5 7 1013.5 1013.3 0.0
01/06:00am 18.3 17.4 13.6 74 2.7 SSE 11 13 6 7 1013.3 1013.1 0.0
01/05:30am 18.8 18.5 14.3 75 2.6 SSE 9 13 5 7 1013.3 1013.1 0.0
01/05:00am 18.0 18.7 16.0 88 1.2 SSE 7 9 4 5 1013.3 1013.1 0.0
01/04:30am 18.2 18.8 16.9 92 0.8 SSE 9 11 5 6 1013.1 1012.9 0.0
01/04:00am 19.1 20.3 17.4 90 1.0 SSE 7 9 4 5 1012.9 1012.7 0.0
01/03:30am 19.7 20.3 17.8 89 1.2 S 11 13 6 7 1013.2 1013.0 0.0
01/03:00am 20.0 21.5 18.0 88 1.2 S 7 9 4 5 1013.2 1013.0 0.0
01/02:30am 19.9 21.6 18.4 91 0.9 SSW 7 9 4 5 1013.6 1013.4 0.0
01/02:00am 20.4 22.2 18.7 90 1.1 SSW 7 9 4 5 1013.7 1013.5 0.0
01/01:30am 20.5 22.6 19.0 91 0.9 SSW 6 6 3 3 1013.8 1013.6 0.0
01/01:00am 20.3 22.0 18.6 90 1.1 SSW 7 7 4 4 1014.0 1013.8 0.0
01/12:30am 19.7 21.3 17.8 89 1.2 SSW 6 6 3 3 1014.1 1013.9 0.0
01/12:00am 20.1 21.8 18.1 88 1.2 SW 6 6 3 3 1014.4 1014.2 0.0
 
Date/Time
CST
Temp
°C
App
Temp
°C
Dew
Point
°C
Rel
Hum
%
Delta-T
°C
Wind Press
QNH
hPa
Press
MSL
hPa
Rain since
9am
mm
Dir  Spd
km/h
Gust
km/h
Spd
kts
Gust
kts
31/11:30pm 20.2 21.9 18.5 90 1.1 SW 7 9 4 5 1014.6 1014.4 0.0
31/11:00pm 20.1 21.6 17.7 86 1.5 WSW 6 7 3 4 1014.7 1014.5 0.0
31/10:30pm 21.7 23.7 18.7 83 1.9 SW 6 7 3 4 1014.8 1014.6 0.0
31/10:00pm 21.6 23.8 19.2 86 1.5 SSW 6 6 3 3 1014.9 1014.7 0.0
31/09:30pm 21.1 24.0 18.3 84 1.7 CALM 0 0 0 0 1014.7 1014.5 0.0
31/09:00pm 21.4 23.8 18.0 81 2.1 NW 2 4 1 2 1014.4 1014.2 0.0
31/08:30pm 21.9 24.1 18.3 80 2.3 NNW 4 6 2 3 1014.3 1014.1 0.0
31/08:00pm 22.2 23.8 17.8 76 2.7 NNW 6 7 3 4 1013.8 1013.6 0.0
31/07:30pm 23.0 24.3 17.0 69 3.7 WNW 6 7 3 4 1013.5 1013.3 0.0
31/07:00pm 24.1 25.4 17.1 65 4.3 N 6 6 3 3 1013.1 1012.9 0.0
31/06:30pm 25.4 26.5 16.5 57 5.5 NNW 6 7 3 4 1012.8 1012.6 0.0

Latest Capital City Observations: Canberra | Sydney | Melbourne | Brisbane | Adelaide | Perth | Hobart | Darwin

Other formats

Comma delimited format used in spreadsheet applications
http://www.bom.gov.au/fwo/IDD60901/IDD60901.94120.axf

JavaScript Object Notation format (JSON) in row-major order
http://www.bom.gov.au/fwo/IDD60901/IDD60901.94120.json

Data quality

Most of these data are generated automatically and are frequently updated. Quality checks on data are not normally performed. It is possible for incorrect values to appear. Refer to information at About Latest Weather Observations and please check the disclaimer before using these data.